Time;durP1;ratioP1;P1;durP2;ratioP2;P2;SDS_P1;SDS_P2;PMS_P1;PMS_P2;Temp;Humidity;BMP_temperature;BMP_pressure;BME280_temperature;BME280_humidity;BME280_pressure;Samples;Min_cycle;Max_cycle;Signal;HPM_P1;HPM_P2
2021/06/01 00:00:12;;;;;;;4.65;4.00;;;11.90;61.60;;;11.48;45.57;95268.25;5039368;28;20569;-80
2021/06/01 00:02:39;;;;;;;4.88;4.20;;;11.90;61.80;;;11.47;45.37;95272.69;4940610;28;20675;-81
2021/06/01 00:05:08;;;;;;;3.90;3.50;;;11.90;61.70;;;11.50;45.66;95261.00;4870675;29;20673;-81
2021/06/01 00:07:37;;;;;;;4.60;3.80;;;11.90;61.90;;;11.50;45.56;95269.69;4791573;29;20221;-80
2021/06/01 00:11:07;;;;;;;5.10;4.50;;;11.90;62.10;;;11.50;45.90;95263.66;5150497;27;21120;-81
2021/06/01 00:13:35;;;;;;;4.55;3.95;;;11.90;62.10;;;11.50;45.84;95269.69;5099301;28;20223;-81
2021/06/01 00:16:03;;;;;;;4.65;4.10;;;11.90;62.20;;;11.51;46.65;95263.44;5064283;28;20566;-80
2021/06/01 00:18:31;;;;;;;5.57;3.88;;;11.90;62.60;;;11.52;47.13;95266.88;5041998;28;20231;-81
2021/06/01 00:20:59;;;;;;;4.32;3.80;;;11.90;62.70;;;11.52;46.77;95259.81;5029946;28;20211;-80
2021/06/01 00:23:26;;;;;;;4.25;3.85;;;11.90;62.70;;;11.56;46.47;95262.06;4928743;28;20246;-81
2021/06/01 00:25:53;;;;;;;4.75;3.95;;;11.90;62.70;;;11.55;47.08;95258.63;4769548;29;20288;-80
2021/06/01 00:28:21;;;;;;;5.50;4.25;;;11.90;63.00;;;11.57;47.10;95256.63;4601394;30;20304;-80
2021/06/01 00:33:16;;;;;;;5.95;4.63;;;11.90;62.90;;;11.58;48.44;95263.50;5143834;27;20569;-81
2021/06/01 00:35:43;;;;;;;4.55;4.15;;;12.00;63.50;;;11.53;48.33;95255.38;5085769;28;20212;-81
2021/06/01 00:38:10;;;;;;;5.20;4.55;;;12.00;63.50;;;11.45;47.98;95252.88;5107774;27;20663;-81
2021/06/01 00:40:36;;;;;;;5.22;4.55;;;11.90;63.20;;;11.40;47.66;95258.72;5066450;28;20201;-80
2021/06/01 00:43:03;;;;;;;4.88;3.97;;;11.90;63.00;;;11.33;47.51;95249.94;5009933;28;20290;-81
2021/06/01 00:45:29;;;;;;;4.85;4.05;;;11.90;63.00;;;11.20;47.18;95248.84;4942511;28;20212;-81
2021/06/01 00:47:56;;;;;;;5.05;4.10;;;11.80;63.00;;;11.15;47.36;95253.00;4876882;29;20240;-82
2021/06/01 00:50:26;;;;;;;5.60;4.10;;;11.80;62.80;;;11.00;47.24;95251.25;4691770;29;20281;-81
2021/06/01 00:54:43;;;;;;;5.07;3.95;;;11.70;62.90;;;10.87;47.05;95248.47;5131520;27;20634;-81
2021/06/01 00:57:11;;;;;;;7.10;4.50;;;11.60;63.50;;;10.80;47.79;95251.03;5104065;28;20197;-81
2021/06/01 00:59:38;;;;;;;10.75;5.70;;;11.50;62.70;;;10.70;47.55;95242.63;5094585;27;20213;-81
2021/06/01 01:02:05;;;;;;;6.20;4.10;;;11.50;62.90;;;10.66;47.84;95250.06;5071667;28;20211;-80
2021/06/01 01:04:33;;;;;;;4.55;4.00;;;11.30;63.00;;;10.61;48.73;95256.84;5055295;28;20220;-80
2021/06/01 01:07:23;;;;;;;5.85;4.25;;;11.30;63.30;;;10.53;48.67;95258.59;4962717;28;20264;-81
2021/06/01 01:09:51;;;;;;;4.68;4.07;;;11.20;63.80;;;10.44;48.39;95249.19;4849190;29;20282;-80
2021/06/01 01:12:26;;;;;;;5.38;4.45;;;11.20;63.30;;;10.40;48.67;95247.94;4765421;29;20215;-83
2021/06/01 01:16:28;;;;;;;7.13;4.32;;;11.10;63.60;;;10.32;49.41;95254.03;5150556;27;20633;-81
2021/06/01 01:19:07;;;;;;;5.30;4.25;;;11.00;63.60;;;10.28;49.02;95254.56;5054845;28;20323;-81
2021/06/01 01:21:48;;;;;;;5.28;4.43;;;11.00;64.00;;;10.22;49.36;95245.66;5037192;28;20236;-81
2021/06/01 01:24:38;;;;;;;5.25;4.35;;;10.90;64.10;;;10.16;49.14;95255.03;5031226;28;20596;-81
2021/06/01 01:27:16;;;;;;;6.32;4.80;;;10.90;64.10;;;10.15;49.63;95252.59;4935425;28;20560;-80
2021/06/01 01:29:46;;;;;;;5.35;4.43;;;10.80;64.20;;;10.11;49.40;95254.78;4883538;29;20319;-81
2021/06/01 01:32:34;;;;;;;4.38;3.97;;;10.70;63.90;;;10.07;49.10;95256.94;4723394;30;20289;-81
2021/06/01 01:37:06;;;;;;;5.07;4.00;;;10.70;64.10;;;9.96;49.03;95253.94;5149964;27;20654;-81
2021/06/01 01:39:40;;;;;;;6.00;4.05;;;10.70;63.70;;;9.91;49.44;95257.91;5119428;27;20232;-81
2021/06/01 01:42:11;;;;;;;4.38;3.97;;;10.60;63.70;;;9.84;49.32;95251.75;5071074;28;20210;-81
2021/06/01 01:44:48;;;;;;;5.47;4.20;;;10.50;63.80;;;9.83;49.45;95254.56;5053804;28;20235;-81
2021/06/01 01:50:09;;;;;;;4.20;3.80;;;10.50;64.20;;;9.68;49.42;95252.72;4830394;29;20212;-80
2021/06/01 01:52:39;;;;;;;4.60;3.83;;;10.40;64.40;;;9.64;49.68;95248.03;4627186;30;20701;-83
2021/06/01 01:57:47;;;;;;;4.18;3.42;;;10.40;64.20;;;9.59;49.86;95249.38;5142574;27;20640;-80
2021/06/01 02:00:17;;;;;;;4.32;3.88;;;10.20;64.60;;;9.55;49.87;95248.09;5098945;27;20201;-81
2021/06/01 02:02:48;;;;;;;4.35;3.95;;;10.20;64.70;;;9.60;49.88;95253.59;5086890;28;20616;-81
2021/06/01 02:05:17;;;;;;;5.47;3.33;;;10.20;64.80;;;9.61;49.94;95252.63;5026062;28;20327;-83
2021/06/01 02:07:44;;;;;;;5.18;3.50;;;10.20;64.60;;;9.59;49.70;95249.38;5005136;28;20220;-82
2021/06/01 02:10:12;;;;;;;3.95;3.50;;;10.10;64.60;;;9.59;49.81;95246.75;4981011;28;20222;-81
2021/06/01 02:12:38;;;;;;;6.97;3.78;;;10.10;64.50;;;9.61;49.93;95247.38;4858509;29;20671;-80
2021/06/01 02:15:09;;;;;;;4.50;3.92;;;10.10;64.50;;;9.63;49.96;95251.63;4784905;29;20240;-80
2021/06/01 02:17:46;;;;;;;4.95;3.33;;;10.20;65.80;;;9.63;49.90;95241.97;5129711;27;20709;-81
2021/06/01 02:20:15;;;;;;;3.80;3.35;;;10.10;64.60;;;9.63;50.14;95235.91;5091614;28;20202;-81
2021/06/01 02:26:03;;;;;;;4.50;3.30;;;10.10;65.20;;;9.58;50.15;95237.28;5024317;28;20213;-81
2021/06/01 02:28:39;;;;;;;4.40;3.35;;;10.20;65.40;;;9.58;50.06;95239.06;4907402;29;20241;-80
2021/06/01 02:31:15;;;;;;;4.50;3.30;;;10.10;65.00;;;9.56;50.36;95230.59;4897512;29;20209;-83
2021/06/01 02:33:45;;;;;;;4.00;3.45;;;10.10;64.80;;;9.56;50.67;95226.16;4772159;29;20250;-80
2021/06/01 02:38:13;;;;;;;3.53;3.22;;;10.10;65.00;;;9.51;49.95;95220.63;5133915;27;20611;-83
2021/06/01 02:40:43;;;;;;;4.30;3.20;;;10.20;64.70;;;9.49;49.95;95233.09;5083802;28;20257;-83
2021/06/01 02:43:14;;;;;;;3.50;3.00;;;10.10;64.90;;;9.41;49.77;95227.91;5101456;28;20275;-84
2021/06/01 02:45:43;;;;;;;3.53;3.03;;;10.10;64.70;;;9.33;49.61;95220.16;5077112;28;20216;-83
2021/06/01 02:48:18;;;;;;;4.05;3.20;;;10.00;64.50;;;9.27;49.88;95229.50;4993208;28;20628;-81
2021/06/01 02:50:51;;;;;;;3.65;3.00;;;10.00;65.00;;;9.17;49.71;95231.53;4921311;29;20262;-83
2021/06/01 02:53:18;;;;;;;3.65;2.90;;;9.90;65.90;;;9.11;49.70;95233.84;4907369;28;20234;-83
2021/06/01 02:56:10;;;;;;;3.85;3.40;;;9.90;65.70;;;9.04;49.93;95237.34;5149478;27;20647;-81
2021/06/01 02:58:41;;;;;;;4.85;3.50;;;9.80;65.90;;;9.01;50.69;95227.22;5065778;28;20237;-81
2021/06/01 03:01:11;;;;;;;4.43;3.28;;;9.70;66.40;;;8.97;51.34;95232.00;5055465;28;20209;-81
2021/06/01 03:03:45;;;;;;;4.20;3.40;;;9.80;66.50;;;8.88;51.09;95219.97;4985955;28;20212;-80
2021/06/01 03:06:11;;;;;;;4.53;3.58;;;9.60;66.80;;;8.89;50.79;95235.47;4952259;28;20563;-81
2021/06/01 03:08:40;;;;;;;5.60;3.22;;;9.60;66.40;;;8.86;50.87;95222.78;4913825;29;20239;-80
2021/06/01 03:11:07;;;;;;;3.70;3.08;;;9.50;66.60;;;8.85;50.39;95231.59;4855855;29;20299;-80
2021/06/01 03:13:34;;;;;;;3.60;3.17;;;9.50;66.50;;;8.83;50.60;95225.72;4637958;30;20250;-80
2021/06/01 03:16:13;;;;;;;3.80;3.35;;;9.50;66.50;;;8.78;50.91;95220.19;5149590;27;20383;-80
2021/06/01 03:18:41;;;;;;;4.82;3.42;;;9.50;66.60;;;8.75;51.08;95221.34;5099676;28;20779;-80
2021/06/01 03:21:13;;;;;;;3.58;3.08;;;9.50;66.70;;;8.75;50.83;95223.97;5062787;28;20290;-82
2021/06/01 03:23:42;;;;;;;3.65;3.10;;;9.40;66.70;;;8.75;51.28;95217.91;5057326;28;20235;-82
2021/06/01 03:26:10;;;;;;;4.47;3.58;;;9.40;66.80;;;8.78;50.80;95223.63;5014676;28;20219;-83
2021/06/01 03:28:37;;;;;;;4.90;3.22;;;9.40;67.00;;;8.82;50.59;95224.09;4934568;28;20704;-82
2021/06/01 03:31:05;;;;;;;3.72;3.05;;;9.30;66.70;;;8.83;50.33;95222.28;4894410;29;20685;-82
2021/06/01 03:33:33;;;;;;;3.50;2.58;;;9.30;66.70;;;8.79;50.40;95211.38;4839428;29;20303;-83
2021/06/01 03:37:54;;;;;;;3.40;2.88;;;9.30;66.90;;;8.79;50.53;95224.44;5131918;27;20661;-83
2021/06/01 03:40:23;;;;;;;3.08;2.65;;;9.30;66.80;;;8.77;50.46;95231.63;5075575;28;20297;-83
2021/06/01 03:42:53;;;;;;;3.03;2.72;;;9.30;66.90;;;8.76;50.67;95228.22;5045676;28;20237;-80
2021/06/01 03:45:21;;;;;;;4.35;3.05;;;9.40;67.00;;;8.76;50.54;95232.63;5008994;28;20236;-83
2021/06/01 03:47:48;;;;;;;3.47;2.88;;;9.30;67.00;;;8.74;50.64;95230.19;4995377;28;20296;-82
2021/06/01 03:50:15;;;;;;;3.30;3.00;;;9.30;67.00;;;8.75;50.67;95228.38;4854532;29;20241;-82
2021/06/01 03:52:41;;;;;;;4.18;2.90;;;9.30;67.10;;;8.77;51.00;95226.41;4697700;30;20282;-82
2021/06/01 03:55:10;;;;;;;4.78;2.97;;;9.30;67.30;;;8.77;51.23;95227.22;4449290;31;20234;-83
2021/06/01 03:57:49;;;;;;;7.25;2.90;;;9.30;67.60;;;8.87;51.10;95220.94;5144679;27;20311;-81
2021/06/01 04:00:26;;;;;;;4.03;2.90;;;9.30;67.50;;;8.90;51.09;95231.06;5073365;28;21018;-80
2021/06/01 04:02:52;;;;;;;3.20;2.90;;;9.40;68.10;;;8.89;51.03;95225.03;5086152;28;20685;-83
2021/06/01 04:05:23;;;;;;;4.43;2.83;;;9.40;67.50;;;8.98;51.09;95228.38;5047478;28;20222;-84
2021/06/01 04:07:50;;;;;;;3.17;2.88;;;9.40;67.60;;;8.99;51.06;95219.56;5000062;28;20225;-82
2021/06/01 04:10:17;;;;;;;3.63;2.90;;;9.50;67.80;;;9.06;50.99;95223.09;4888240;29;20206;-80
2021/06/01 04:12:44;;;;;;;3.67;3.38;;;9.40;67.80;;;9.08;50.84;95215.91;4861585;29;20211;-81
2021/06/01 04:15:12;;;;;;;7.15;5.10;;;9.50;67.90;;;9.17;51.06;95224.50;4762384;29;21031;-84
2021/06/01 04:17:49;;;;;;;4.57;4.18;;;9.50;67.90;;;9.18;51.14;95218.28;5133201;27;20845;-83
2021/06/01 04:20:20;;;;;;;5.63;4.57;;;9.50;67.90;;;9.26;51.26;95225.25;5083508;28;20267;-82
2021/06/01 04:22:47;;;;;;;4.43;3.90;;;9.60;68.10;;;9.32;51.16;95219.31;5089862;28;20213;-80
2021/06/01 04:25:15;;;;;;;4.30;3.55;;;9.70;68.10;;;9.38;51.46;95220.41;5056221;28;20264;-82
2021/06/01 04:27:42;;;;;;;4.38;3.97;;;9.70;68.40;;;9.49;51.87;95227.84;5047868;28;20213;-81
2021/06/01 04:30:11;;;;;;;4.78;3.80;;;9.80;68.70;;;9.57;51.95;95221.72;4983914;28;20213;-81
2021/06/01 04:32:39;;;;;;;4.80;4.30;;;9.80;68.80;;;9.71;52.08;95228.78;4887757;29;20726;-82
2021/06/01 04:35:07;;;;;;;5.95;4.85;;;9.90;68.90;;;9.81;52.94;95220.66;4739971;29;20567;-83
2021/06/01 04:38:31;;;;;;;6.15;4.80;;;10.00;67.90;;;10.06;52.18;95231.72;5141773;27;20636;-82
2021/06/01 04:40:58;;;;;;;4.93;4.07;;;10.10;67.90;;;10.24;52.03;95226.13;5108664;28;20197;-82
2021/06/01 04:43:25;;;;;;;4.93;4.30;;;10.30;68.20;;;10.35;52.12;95216.16;5072511;28;20224;-82
2021/06/01 04:45:51;;;;;;;6.85;5.07;;;10.40;69.00;;;10.50;51.97;95226.66;5054712;28;20207;-81
2021/06/01 04:48:18;;;;;;;7.95;5.15;;;10.50;68.20;;;10.56;51.97;95224.09;5016377;28;20231;-81
2021/06/01 04:50:44;;;;;;;8.23;5.50;;;10.60;68.00;;;10.71;52.28;95224.06;4996189;28;20278;-81
2021/06/01 04:53:11;;;;;;;6.70;4.85;;;10.70;68.00;;;10.86;52.93;95237.19;4915405;28;20259;-81
2021/06/01 04:55:38;;;;;;;9.18;5.80;;;10.80;68.20;;;11.01;53.33;95228.41;4789603;29;20309;-81
2021/06/01 04:58:16;;;;;;;7.60;5.53;;;11.00;68.40;;;11.21;53.06;95231.25;5143704;27;20332;-81
2021/06/01 05:00:42;;;;;;;6.35;5.13;;;11.10;68.60;;;11.36;53.55;95229.38;5071376;28;20197;-81
2021/06/01 05:03:09;;;;;;;8.27;5.20;;;11.30;68.80;;;11.50;53.46;95229.50;5068857;28;20233;-82
2021/06/01 05:05:37;;;;;;;9.20;5.25;;;11.50;68.60;;;11.67;53.19;95227.41;5054089;28;20203;-82
2021/06/01 05:08:04;;;;;;;6.20;5.60;;;11.50;68.50;;;11.80;52.66;95224.03;4974301;28;20612;-81
2021/06/01 05:10:30;;;;;;;6.88;5.65;;;11.70;68.50;;;11.94;52.45;95220.50;4933909;28;20658;-82
2021/06/01 05:12:57;;;;;;;7.90;5.43;;;11.90;68.40;;;12.06;52.38;95220.00;4918623;28;20778;-81
2021/06/01 05:15:24;;;;;;;5.68;4.93;;;12.00;68.20;;;12.19;51.83;95222.69;4675253;29;20363;-79
2021/06/01 05:18:03;;;;;;;6.25;5.03;;;12.10;68.10;;;12.31;51.68;95218.50;5145391;27;20326;-82
2021/06/01 05:20:29;;;;;;;6.13;4.80;;;12.20;67.90;;;12.46;51.43;95233.34;5108402;28;20635;-81
2021/06/01 05:22:56;;;;;;;5.45;4.93;;;12.40;67.80;;;12.58;51.46;95226.53;5085723;28;20319;-81
2021/06/01 05:25:23;;;;;;;6.25;4.90;;;12.50;67.70;;;12.67;51.14;95219.28;5067468;28;20241;-81
2021/06/01 05:27:50;;;;;;;5.95;4.50;;;12.60;67.80;;;12.80;51.06;95227.22;5010352;28;20252;-82
2021/06/01 05:30:23;;;;;;;5.50;3.70;;;12.60;67.50;;;12.94;50.63;95228.06;4898835;29;20678;-81
2021/06/01 05:38:31;;;;;;;3.50;3.03;;;13.00;66.90;;;13.27;49.99;95226.53;5135305;27;20669;-82
2021/06/01 05:41:00;;;;;;;3.63;3.33;;;13.10;66.80;;;13.36;50.00;95227.13;5101001;28;20637;-81
2021/06/01 05:43:30;;;;;;;3.72;3.33;;;13.30;66.60;;;13.45;49.90;95224.13;5066965;28;20747;-80
2021/06/01 05:45:57;;;;;;;3.70;3.33;;;13.40;66.70;;;13.57;49.80;95234.06;5017742;28;20624;-81
2021/06/01 05:48:23;;;;;;;3.80;3.40;;;13.40;66.50;;;13.64;49.46;95228.81;5014835;28;20295;-81
2021/06/01 05:50:50;;;;;;;5.20;3.13;;;13.60;66.50;;;13.75;49.17;95226.34;4997841;28;20682;-82
2021/06/01 05:53:17;;;;;;;4.78;3.25;;;13.60;66.20;;;13.79;49.16;95218.84;5004613;28;20226;-81
2021/06/01 05:55:45;;;;;;;5.97;3.38;;;13.70;66.00;;;13.94;48.80;95234.47;4840223;29;20626;-81
2021/06/01 05:58:23;;;;;;;3.85;3.40;;;13.80;66.00;;;14.01;49.00;95227.38;5142125;27;20391;-80
2021/06/01 06:00:51;;;;;;;4.05;3.55;;;13.90;66.00;;;14.09;48.86;95232.41;5087148;28;20599;-79
2021/06/01 06:03:18;;;;;;;4.05;3.65;;;13.90;66.20;;;14.21;49.03;95229.94;5084263;28;20321;-80
2021/06/01 06:05:46;;;;;;;3.85;3.40;;;14.00;66.30;;;14.30;48.89;95232.38;5023719;28;20212;-79
2021/06/01 06:08:15;;;;;;;4.60;3.92;;;14.20;66.50;;;14.39;49.07;95241.66;4946560;28;20216;-80
2021/06/01 06:10:43;;;;;;;6.15;4.07;;;14.30;66.50;;;14.49;49.30;95241.22;4799355;29;20221;-80
2021/06/01 06:13:11;;;;;;;7.68;4.65;;;14.30;66.50;;;14.56;48.85;95240.22;4656421;30;20239;-79
2021/06/01 06:15:39;;;;;;;5.95;4.07;;;14.40;66.40;;;14.66;49.13;95242.44;4398054;31;20248;-80
2021/06/01 06:19:19;;;;;;;4.05;3.58;;;14.50;66.30;;;14.80;48.34;95240.53;5125674;27;20571;-79
2021/06/01 06:21:45;;;;;;;3.60;3.25;;;14.60;66.00;;;14.90;48.53;95242.72;5080289;28;20206;-79
2021/06/01 06:24:13;;;;;;;3.72;3.10;;;14.70;66.00;;;14.99;48.42;95235.38;5055439;28;20249;-80
2021/06/01 06:26:41;;;;;;;5.35;3.45;;;14.80;65.50;;;15.08;47.89;95238.59;5028983;28;20211;-80
2021/06/01 06:29:07;;;;;;;5.93;4.40;;;14.90;66.20;;;15.13;47.94;95231.63;4989586;28;20297;-79
2021/06/01 06:31:34;;;;;;;5.43;3.80;;;15.00;65.20;;;15.25;47.60;95234.41;4871790;29;20730;-79
2021/06/01 06:34:01;;;;;;;5.45;4.03;;;15.10;65.00;;;15.34;47.36;95234.97;4775751;29;20269;-79
2021/06/01 06:36:27;;;;;;;8.15;4.10;;;15.10;64.90;;;15.40;47.21;95236.75;4641566;30;20226;-79
2021/06/01 06:41:15;;;;;;;5.95;4.18;;;15.20;64.60;;;15.53;46.96;95241.94;5128331;27;20333;-81
2021/06/01 06:43:53;;;;;;;4.35;3.50;;;15.30;64.40;;;15.63;46.56;95238.03;5082479;28;20577;-81
2021/06/01 06:46:26;;;;;;;4.05;3.00;;;15.50;63.90;;;15.66;46.65;95235.75;5011494;28;20222;-82
2021/06/01 06:48:55;;;;;;;3.70;2.97;;;15.60;63.70;;;15.74;46.05;95232.03;4984939;28;20227;-82
2021/06/01 06:51:23;;;;;;;3.75;2.90;;;15.60;63.80;;;15.81;46.08;95237.28;4964470;28;20653;-82
2021/06/01 06:53:55;;;;;;;4.60;2.88;;;15.60;63.90;;;15.86;46.03;95237.47;4912883;28;20237;-82
2021/06/01 06:56:30;;;;;;;4.22;2.97;;;15.70;63.60;;;15.92;45.34;95233.94;4854146;29;20216;-82
2021/06/01 06:59:12;;;;;;;4.57;3.00;;;15.70;63.20;;;16.04;45.34;95235.88;5112028;27;20678;-81
2021/06/01 07:01:39;;;;;;;3.35;2.60;;;15.90;63.60;;;16.13;45.24;95237.22;5087074;28;20221;-81
2021/06/01 07:04:06;;;;;;;4.35;2.72;;;15.90;63.40;;;16.20;44.96;95235.31;5058129;28;22314;-81
2021/06/01 07:06:32;;;;;;;3.17;2.53;;;15.90;63.10;;;16.26;45.00;95218.56;4979263;28;20205;-83
2021/06/01 07:08:59;;;;;;;3.22;2.33;;;16.00;63.20;;;16.39;45.05;95227.38;4915507;28;20228;-81
2021/06/01 07:11:25;;;;;;;2.92;2.50;;;16.10;63.30;;;16.46;44.94;95234.22;4862463;29;20630;-81
2021/06/01 07:14:26;;;;;;;3.78;2.58;;;16.20;63.20;;;16.58;44.67;95236.16;4767505;29;20235;-83
2021/06/01 07:17:10;;;;;;;2.95;2.53;;;16.30;62.70;;;16.70;44.16;95241.50;5147480;27;20567;-82
2021/06/01 07:19:36;;;;;;;3.30;2.60;;;16.40;62.70;;;16.79;44.23;95235.66;5111920;27;20220;-83
2021/06/01 07:22:07;;;;;;;4.45;2.50;;;16.40;62.20;;;16.89;43.89;95237.00;5073767;28;20216;-82
2021/06/01 07:24:33;;;;;;;2.70;2.50;;;16.50;61.90;;;16.93;43.73;95232.88;5078972;28;20308;-82
2021/06/01 07:27:01;;;;;;;2.20;1.88;;;16.60;61.80;;;17.02;43.24;95230.75;5010884;28;20221;-83
2021/06/01 07:29:28;;;;;;;2.25;2.00;;;16.70;61.60;;;17.09;43.18;95237.56;4927956;28;20229;-82
2021/06/01 07:31:55;;;;;;;2.38;2.17;;;16.80;61.40;;;17.16;42.66;95232.16;4858647;29;20230;-82
2021/06/01 07:34:22;;;;;;;2.35;2.10;;;16.80;60.90;;;17.23;42.70;95229.44;4642264;29;20243;-82
2021/06/01 07:38:22;;;;;;;2.38;2.08;;;16.90;61.00;;;17.29;42.41;95228.53;5138094;27;20580;-82
2021/06/01 07:40:49;;;;;;;2.22;2.00;;;17.00;61.10;;;17.39;42.26;95223.50;5091581;28;20200;-81
2021/06/01 07:43:16;;;;;;;2.38;2.00;;;17.10;61.20;;;17.47;42.07;95226.84;5089665;28;20695;-82
2021/06/01 07:45:43;;;;;;;3.45;2.15;;;17.20;60.90;;;17.54;41.58;95224.91;5043277;28;20219;-81
2021/06/01 07:48:11;;;;;;;3.90;2.50;;;17.30;60.60;;;17.59;41.54;95223.19;4987554;28;20374;-82
2021/06/01 07:50:38;;;;;;;2.80;2.35;;;17.30;60.30;;;17.64;41.10;95211.91;4939736;28;20424;-83
2021/06/01 07:53:04;;;;;;;2.30;2.10;;;17.40;60.20;;;17.68;41.40;95218.34;4887989;29;20267;-82
2021/06/01 07:55:32;;;;;;;2.85;2.03;;;17.40;60.60;;;17.80;41.66;95215.72;4802883;29;20418;-83
2021/06/01 07:59:04;;;;;;;2.20;1.83;;;17.40;60.10;;;17.83;40.06;95206.47;5135528;27;20645;-83
2021/06/01 08:01:31;;;;;;;2.38;2.10;;;17.60;59.50;;;17.90;40.47;95209.84;5091851;28;20253;-82
2021/06/01 08:03:58;;;;;;;3.20;2.00;;;17.50;59.10;;;17.96;40.44;95214.25;5094718;28;20905;-82
2021/06/01 08:06:28;;;;;;;2.55;2.13;;;17.60;59.50;;;18.02;40.10;95215.19;5104042;27;20208;-82
2021/06/01 08:08:55;;;;;;;3.10;2.30;;;17.70;58.90;;;18.08;40.16;95217.72;5029849;28;20234;-81
2021/06/01 08:11:22;;;;;;;2.78;1.90;;;17.70;59.10;;;18.15;40.18;95208.81;5023687;28;20679;-83
2021/06/01 08:13:49;;;;;;;2.47;2.03;;;17.80;58.90;;;18.25;39.97;95214.38;4941910;28;20299;-83
2021/06/01 08:16:16;;;;;;;3.13;2.17;;;17.90;58.50;;;18.29;38.84;95215.50;4666727;29;20310;-82
2021/06/01 08:19:13;;;;;;;3.75;2.05;;;18.00;58.10;;;18.33;39.02;95203.38;5131813;27;20393;-82
2021/06/01 08:24:09;;;;;;;2.60;2.10;;;18.10;58.10;;;18.48;39.22;95204.72;5036990;28;20270;-81
2021/06/01 08:26:36;;;;;;;5.03;2.42;;;18.20;58.10;;;18.54;39.07;95206.44;5034352;28;20208;-82
2021/06/01 08:29:03;;;;;;;2.15;1.90;;;18.20;58.00;;;18.61;38.86;95206.31;4979611;28;20496;-83
2021/06/01 08:31:30;;;;;;;3.97;2.47;;;18.20;57.60;;;18.64;38.47;95204.00;4908361;28;20221;-83
2021/06/01 08:33:57;;;;;;;3.80;2.30;;;18.30;57.60;;;18.73;38.77;95201.78;4861501;29;20289;-82
2021/06/01 08:36:25;;;;;;;2.47;2.25;;;18.40;57.30;;;18.81;38.60;95204.06;4690900;30;20259;-82
2021/06/01 08:39:06;;;;;;;5.45;2.42;;;18.40;57.50;;;18.85;38.36;95194.56;5119290;27;20730;-83
2021/06/01 08:41:35;;;;;;;2.50;2.30;;;18.50;57.20;;;18.98;38.37;95198.03;5078235;28;20214;-83
2021/06/01 08:44:05;;;;;;;3.17;2.45;;;18.60;57.00;;;19.05;38.25;95193.38;5055362;28;20311;-82
2021/06/01 08:46:34;;;;;;;2.80;2.17;;;18.60;56.90;;;19.12;38.04;95198.56;5017857;28;20431;-80
2021/06/01 08:49:03;;;;;;;3.10;2.20;;;18.70;56.60;;;19.18;37.19;95200.25;4952765;28;20292;-80
2021/06/01 08:51:30;;;;;;;2.95;2.40;;;18.80;56.60;;;19.25;37.77;95198.25;4912799;29;20535;-80
2021/06/01 08:53:58;;;;;;;2.60;2.40;;;18.80;56.80;;;19.34;37.99;95201.31;4775532;29;20246;-80
2021/06/01 08:56:27;;;;;;;3.22;2.42;;;18.90;56.90;;;19.42;37.19;95200.94;4629504;30;20220;-79
2021/06/01 08:59:04;;;;;;;4.15;2.75;;;19.00;56.50;;;19.49;37.31;95206.09;5134325;27;20319;-80
2021/06/01 09:01:31;;;;;;;4.18;2.65;;;19.00;57.30;;;19.55;37.01;95196.34;5074365;28;20203;-80
2021/06/01 09:04:00;;;;;;;3.75;2.65;;;19.10;56.10;;;19.60;37.13;95202.53;5080780;28;20596;-81
2021/06/01 09:06:49;;;;;;;5.80;2.38;;;19.20;55.90;;;19.70;37.13;95193.94;5070430;28;20264;-80
2021/06/01 09:23:05;;;;;;;5.05;2.30;;;19.60;56.00;;;20.00;36.33;95198.13;5097476;28;20740;-80
2021/06/01 09:25:49;;;;;;;3.45;2.25;;;19.60;54.60;;;20.09;36.43;95201.19;5029462;28;20561;-80
2021/06/01 09:28:17;;;;;;;3.70;2.63;;;19.70;55.20;;;20.14;36.59;95188.75;5009164;28;20326;-79
2021/06/01 09:30:59;;;;;;;3.42;2.70;;;19.80;55.50;;;20.24;36.51;95189.97;4919928;28;20220;-80
2021/06/01 09:33:32;;;;;;;3.80;2.58;;;19.80;55.40;;;20.30;36.18;95189.75;4838329;29;20239;-82
2021/06/01 09:36:02;;;;;;;3.47;2.55;;;19.90;55.10;;;20.39;36.10;95192.81;4773384;29;20717;-80
2021/06/01 09:41:30;;;;;;;3.33;2.40;;;20.00;55.10;;;20.64;35.21;95189.66;5134151;27;20534;-81
2021/06/01 09:44:07;;;;;;;2.28;2.08;;;20.10;53.90;;;20.76;35.22;95175.41;5062517;28;20234;-79
2021/06/01 09:46:36;;;;;;;2.40;2.20;;;20.20;54.00;;;20.86;35.44;95182.72;5073627;28;20671;-80
2021/06/01 09:49:12;;;;;;;2.47;2.15;;;20.30;54.30;;;20.95;35.22;95182.03;5064659;28;20223;-80
2021/06/01 09:51:52;;;;;;;3.40;2.33;;;20.40;54.20;;;21.09;34.99;95174.44;4960035;28;20212;-81
2021/06/01 09:54:30;;;;;;;2.45;2.10;;;20.40;53.90;;;21.23;35.47;95177.50;4902008;28;20238;-80
2021/06/01 09:56:57;;;;;;;2.55;2.17;;;20.60;54.40;;;21.35;35.22;95169.34;4748937;29;20216;-80
2021/06/01 09:59:25;;;;;;;5.65;2.13;;;20.70;54.80;;;21.47;35.08;95168.38;4587014;30;20272;-80
2021/06/01 10:04:26;;;;;;;2.35;2.08;;;20.80;54.30;;;21.85;34.87;95164.69;5125963;27;20583;-81
2021/06/01 10:06:54;;;;;;;2.70;1.98;;;21.10;54.60;;;22.03;34.94;95163.47;5042607;28;20213;-80
2021/06/01 10:09:21;;;;;;;3.03;1.95;;;21.20;53.90;;;22.30;34.37;95165.22;5055770;28;20223;-79
2021/06/01 10:11:56;;;;;;;2.03;1.90;;;21.50;54.20;;;22.52;34.36;95157.06;5062205;28;20675;-81
2021/06/01 10:14:25;;;;;;;4.15;2.15;;;21.60;53.80;;;22.68;33.41;95152.56;5007407;28;20234;-79
2021/06/01 10:16:53;;;;;;;1.80;1.70;;;21.80;53.30;;;22.77;34.11;95144.84;4952922;28;20229;-80
2021/06/01 10:19:19;;;;;;;2.63;2.08;;;21.90;54.00;;;22.89;34.17;95154.47;4910013;28;20738;-80
2021/06/01 10:21:53;;;;;;;2.42;2.15;;;22.10;53.90;;;23.01;33.56;95155.84;4786988;29;20274;-80
2021/06/01 10:25:51;;;;;;;1.90;1.80;;;22.20;53.20;;;23.24;33.54;95152.97;5148269;27;20646;-80
2021/06/01 10:28:24;;;;;;;2.95;2.10;;;22.50;53.00;;;23.38;33.53;95147.91;5137184;27;20265;-81
2021/06/01 10:30:53;;;;;;;7.10;2.08;;;22.60;52.80;;;23.48;33.08;95142.56;5077044;28;20344;-81
2021/06/01 10:33:21;;;;;;;3.50;1.90;;;22.70;52.20;;;23.56;33.27;95139.34;4991045;28;20323;-80
2021/06/01 10:36:05;;;;;;;3.67;2.10;;;22.90;52.40;;;23.62;32.89;95122.19;4993749;28;20620;-80
2021/06/01 10:51:03;;;;;;;2.33;2.13;;;23.40;51.40;;;24.15;32.41;95131.78;5069459;28;20215;-81
2021/06/01 10:53:41;;;;;;;2.58;2.10;;;23.50;51.20;;;24.27;31.91;95129.59;5071047;28;20243;-79
2021/06/01 10:56:10;;;;;;;2.38;2.10;;;23.60;50.80;;;24.40;32.27;95114.00;4993057;28;20659;-83
2021/06/01 11:06:15;;;;;;;2.42;2.00;;;24.00;50.50;;;24.69;31.90;95098.06;5147377;27;20536;-82
2021/06/01 11:08:44;;;;;;;2.25;1.90;;;24.10;51.10;;;24.74;31.14;95097.22;5084025;28;20229;-82
2021/06/01 11:11:39;;;;;;;2.88;2.00;;;24.20;50.10;;;24.71;30.88;95095.13;5122549;27;20200;-83
2021/06/01 11:14:32;;;;;;;2.20;1.92;;;24.30;50.50;;;24.74;31.19;95095.38;5064555;28;20298;-82
2021/06/01 11:17:01;;;;;;;2.35;2.08;;;24.30;50.10;;;24.75;31.06;95088.91;5055635;28;20204;-83
2021/06/01 11:20:04;;;;;;;2.20;2.00;;;24.30;49.60;;;24.76;30.44;95084.34;4944048;28;20241;-83
2021/06/01 11:22:45;;;;;;;2.50;2.30;;;24.40;49.80;;;24.76;30.81;95082.47;4821931;29;20227;-83
2021/06/01 11:33:26;;;;;;;3.63;2.20;;;24.40;49.30;;;24.67;30.85;95081.47;5054247;28;20706;-82
2021/06/01 11:36:03;;;;;;;2.53;2.08;;;24.40;48.90;;;24.69;30.69;95078.50;4960771;28;20214;-82
2021/06/01 11:38:36;;;;;;;2.30;1.90;;;24.40;49.00;;;24.72;30.39;95076.06;4867525;29;20332;-83
2021/06/01 11:41:23;;;;;;;1.95;1.77;;;24.40;48.40;;;24.73;30.31;95076.84;4814962;29;20225;-83
2021/06/01 11:46:29;;;;;;;2.70;2.20;;;24.40;48.60;;;24.70;29.88;95067.47;5148124;27;20380;-83
2021/06/01 11:51:49;;;;;;;2.17;1.80;;;24.40;48.10;;;24.70;30.52;95072.84;5056542;28;20199;-83
2021/06/01 11:54:16;;;;;;;2.92;1.92;;;24.40;48.70;;;24.68;30.25;95063.47;5068569;28;20326;-82
2021/06/01 12:21:03;;;;;;;2.40;2.08;;;24.70;49.10;;;26.09;29.79;95051.28;4806996;29;20226;-83
2021/06/01 12:23:31;;;;;;;3.17;2.05;;;25.10;49.30;;;26.81;30.20;95050.38;4676037;30;20244;-82
2021/06/01 12:30:53;;;;;;;1.73;1.60;;;25.60;49.70;;;27.99;30.05;95046.78;5132098;27;20587;-82
2021/06/01 12:30:59;;;;;;;3.60;1.90;;;26.60;49.60;;;28.78;29.19;95034.91;5084177;28;20213;-82
2021/06/01 12:33:25;;;;;;;1.85;1.75;;;27.30;49.20;;;29.52;28.34;95041.78;5106635;28;20223;-82